createdAt,value
2019-05-03T00:01:48.050Z,20.47
2019-05-03T00:04:18.896Z,19.47
2019-05-03T00:06:52.871Z,19.93
2019-05-03T00:09:29.054Z,24.47
2019-05-03T00:11:59.337Z,23.43
2019-05-03T00:14:29.715Z,22.10
2019-05-03T00:16:59.998Z,20.60
2019-05-03T00:19:32.728Z,23.57
2019-05-03T00:22:03.237Z,23.57
2019-05-03T00:24:36.967Z,25.83
2019-05-03T00:27:09.779Z,23.97
2019-05-03T00:29:41.648Z,26.17
2019-05-03T00:32:12.491Z,23.43
2019-05-03T00:34:46.542Z,25.20
2019-05-03T00:37:18.170Z,27.67
2019-05-03T00:40:01.886Z,25.80
2019-05-03T00:42:32.487Z,27.43
2019-05-03T00:45:03.246Z,25.17
2019-05-03T00:47:33.949Z,25.10
2019-05-03T00:50:04.340Z,24.90
2019-05-03T00:52:34.828Z,26.93
2019-05-03T00:55:15.768Z,22.37
2019-05-03T00:57:47.779Z,25.43
2019-05-03T01:00:19.202Z,23.30
2019-05-03T01:02:51.675Z,23.87
2019-05-03T01:05:23.421Z,26.77
2019-05-03T01:07:53.834Z,24.00
2019-05-03T01:10:23.998Z,22.63
2019-05-03T01:12:54.142Z,26.73
2019-05-03T01:15:40.104Z,24.70
2019-05-03T01:18:12.385Z,22.93
2019-05-03T01:20:42.711Z,22.40
2019-05-03T01:23:13.286Z,23.30
2019-05-03T01:25:46.027Z,22.63
2019-05-03T01:28:27.215Z,21.13
2019-05-03T01:30:57.628Z,22.63
2019-05-03T01:33:28.335Z,24.47
2019-05-03T01:36:03.881Z,21.07
2019-05-03T01:38:34.584Z,21.90
2019-05-03T01:41:08.404Z,20.20
2019-05-03T01:43:42.040Z,19.23
2019-05-03T01:46:12.086Z,21.40
2019-05-03T01:48:54.814Z,23.70
2019-05-03T01:51:32.581Z,23.37
2019-05-03T01:54:05.392Z,23.37
2019-05-03T01:56:56.015Z,21.70
2019-05-03T01:59:18.037Z,23.37
2019-05-03T02:02:07.158Z,21.83
2019-05-03T02:04:47.398Z,22.37
2019-05-03T02:07:17.834Z,24.70
2019-05-03T02:09:51.948Z,19.40
2019-05-03T02:12:22.329Z,20.70
2019-05-03T02:14:52.431Z,21.33
2019-05-03T02:17:22.695Z,21.57
2019-05-03T02:19:53.176Z,22.20
2019-05-03T02:22:28.413Z,19.17
2019-05-03T02:24:58.647Z,21.07
2019-05-03T02:27:28.790Z,18.50
2019-05-03T02:30:03.010Z,20.07
2019-05-03T02:32:33.431Z,22.30
2019-05-03T02:35:10.195Z,20.67
2019-05-03T02:37:46.640Z,19.97
2019-05-03T02:40:20.626Z,20.10
2019-05-03T02:43:11.623Z,23.23
2019-05-03T02:46:10.616Z,22.17
2019-05-03T02:49:08.999Z,23.07
2019-05-03T02:51:40.899Z,24.07
2019-05-03T02:54:11.670Z,22.67
2019-05-03T02:56:41.795Z,22.70
2019-05-03T02:59:11.914Z,22.67
2019-05-03T03:01:47.707Z,24.00
2019-05-03T03:04:19.037Z,23.50
2019-05-03T03:06:51.537Z,20.47
2019-05-03T03:09:25.899Z,21.97
2019-05-03T03:11:58.100Z,23.13
2019-05-03T03:14:32.984Z,24.10
2019-05-03T03:17:06.701Z,25.40
2019-05-03T03:19:38.259Z,24.07
2019-05-03T03:22:11.196Z,21.97
2019-05-03T03:24:45.968Z,23.40
2019-05-03T03:27:18.880Z,21.13
2019-05-03T03:29:57.380Z,24.80
2019-05-03T03:32:38.088Z,22.97
2019-05-03T03:35:20.201Z,21.13
2019-05-03T03:37:46.492Z,22.50
2019-05-03T03:40:20.959Z,21.77
2019-05-03T03:42:59.151Z,24.67
2019-05-03T03:45:31.462Z,22.20
2019-05-03T03:48:02.076Z,23.83
2019-05-03T03:50:35.871Z,22.37
2019-05-03T03:53:08.026Z,22.70
2019-05-03T03:55:45.844Z,20.33
2019-05-03T03:58:22.045Z,23.47
2019-05-03T04:00:55.507Z,24.53
2019-05-03T04:03:26.529Z,24.67
2019-05-03T04:05:57.221Z,23.57
2019-05-03T04:08:27.741Z,22.40
2019-05-03T04:11:00.785Z,24.50
2019-05-03T04:13:35.980Z,22.37
2019-05-03T04:16:21.005Z,21.90
2019-05-03T04:19:05.928Z,24.23
2019-05-03T04:21:41.119Z,22.30
2019-05-03T04:24:11.309Z,24.10
2019-05-03T04:26:41.869Z,23.17
2019-05-03T04:29:12.651Z,22.17
2019-05-03T04:31:48.394Z,25.30
2019-05-03T04:34:18.442Z,23.10
2019-05-03T04:36:50.917Z,25.03
2019-05-03T04:39:21.438Z,23.53
2019-05-03T04:41:51.907Z,30.27
2019-05-03T04:44:21.992Z,26.43
2019-05-03T04:46:55.989Z,28.30
2019-05-03T04:49:26.090Z,26.97
2019-05-03T04:51:56.355Z,32.03
2019-05-03T04:54:49.461Z,27.00
2019-05-03T04:57:36.379Z,28.80
2019-05-03T04:59:56.095Z,28.70
2019-05-03T05:02:27.659Z,31.87
2019-05-03T05:04:57.931Z,30.27
2019-05-03T05:07:30.548Z,27.33
2019-05-03T05:10:05.182Z,27.13
2019-05-03T05:12:39.006Z,27.00
2019-05-03T05:15:11.800Z,29.43
2019-05-03T05:17:51.183Z,27.07
2019-05-03T05:20:45.418Z,31.33
2019-05-03T05:23:15.683Z,31.03
2019-05-03T05:25:51.552Z,29.20
2019-05-03T05:28:41.023Z,26.63
2019-05-03T05:31:15.017Z,26.90
2019-05-03T05:33:47.560Z,28.67
2019-05-03T05:36:17.458Z,29.97
2019-05-03T05:38:47.951Z,30.60
2019-05-03T05:41:20.163Z,28.40
2019-05-03T05:43:54.983Z,29.50
2019-05-03T05:46:27.903Z,26.53
2019-05-03T05:48:57.900Z,26.83
2019-05-03T05:51:28.505Z,28.20
2019-05-03T05:53:58.539Z,30.43
2019-05-03T05:56:41.725Z,30.00
2019-05-03T05:59:42.796Z,29.17
2019-05-03T06:02:14.945Z,28.80
2019-05-03T06:04:45.222Z,29.10
2019-05-03T06:07:37.230Z,29.60
2019-05-03T06:10:26.490Z,31.43
2019-05-03T06:13:18.844Z,32.50
2019-05-03T06:16:11.283Z,36.17
2019-05-03T06:19:18.883Z,31.03
2019-05-03T06:21:55.033Z,31.40
2019-05-03T06:24:29.992Z,31.77
2019-05-03T06:27:05.355Z,37.60
2019-05-03T06:29:36.046Z,30.33
2019-05-03T06:32:12.266Z,35.33
2019-05-03T06:34:42.376Z,34.77
2019-05-03T06:37:15.138Z,35.27
2019-05-03T06:39:45.636Z,37.83
2019-05-03T06:42:19.124Z,34.53
2019-05-03T06:44:51.342Z,34.50
2019-05-03T06:47:21.463Z,35.57
2019-05-03T06:49:51.510Z,37.37
2019-05-03T06:52:27.597Z,32.23
2019-05-03T06:54:55.354Z,35.47
2019-05-03T06:57:26.059Z,35.07
2019-05-03T07:00:07.498Z,31.30
2019-05-03T07:03:05.646Z,31.13
2019-05-03T07:06:01.406Z,47.00
2019-05-03T07:08:49.877Z,24.80
2019-05-03T07:11:20.616Z,23.70
2019-05-03T07:13:50.893Z,25.23
2019-05-03T07:16:21.400Z,21.77
2019-05-03T07:18:51.330Z,23.90
2019-05-03T07:21:21.615Z,24.33
2019-05-03T07:23:52.283Z,23.60
2019-05-03T07:26:25.442Z,22.13
2019-05-03T07:28:54.554Z,21.93
2019-05-03T07:31:25.492Z,24.57
2019-05-03T07:33:55.805Z,25.27
2019-05-03T07:36:28.333Z,25.60
2019-05-03T07:38:58.696Z,25.03
2019-05-03T07:41:28.715Z,26.30
2019-05-03T07:43:59.303Z,28.30
2019-05-03T07:46:31.714Z,25.53
2019-05-03T07:49:00.983Z,26.23
2019-05-03T07:51:31.014Z,26.80
2019-05-03T07:54:04.525Z,33.00
2019-05-03T07:56:38.618Z,25.37
2019-05-03T07:59:08.775Z,27.20
2019-05-03T08:01:45.421Z,24.67
2019-05-03T08:04:15.413Z,26.07
2019-05-03T08:06:48.676Z,25.07
2019-05-03T08:09:21.773Z,26.00
2019-05-03T08:11:52.213Z,24.57
2019-05-03T08:14:22.283Z,28.57
2019-05-03T08:16:54.607Z,26.97
2019-05-03T08:19:26.963Z,24.83
2019-05-03T08:25:25.436Z,25.13
2019-05-03T08:27:55.814Z,20.93
2019-05-03T08:30:44.510Z,24.30
2019-05-03T08:33:24.871Z,20.27
2019-05-03T08:35:55.505Z,22.97
2019-05-03T08:38:25.946Z,15.60
2019-05-03T08:40:57.838Z,15.30
2019-05-03T08:43:27.752Z,16.60
2019-05-03T08:45:57.987Z,15.07
2019-05-03T08:48:27.858Z,18.77
2019-05-03T08:50:57.718Z,17.87
2019-05-03T08:53:27.689Z,17.60
2019-05-03T08:55:57.705Z,17.07
2019-05-03T08:58:29.761Z,16.23
2019-05-03T09:01:01.015Z,15.03
2019-05-03T09:03:31.383Z,15.10
2019-05-03T09:06:01.746Z,16.37
2019-05-03T09:08:31.975Z,18.60
2019-05-03T09:11:30.831Z,15.40
2019-05-03T09:13:55.957Z,13.90
2019-05-03T09:16:26.054Z,14.97
2019-05-03T09:18:56.023Z,15.93
2019-05-03T09:21:26.034Z,13.70
2019-05-03T09:23:56.093Z,12.77
2019-05-03T09:26:29.090Z,13.63
2019-05-03T09:28:58.057Z,13.27
2019-05-03T09:31:28.153Z,14.03
2019-05-03T09:33:58.194Z,14.57
2019-05-03T09:36:28.485Z,14.10
2019-05-03T09:38:58.816Z,12.13
2019-05-03T09:41:28.836Z,11.30
2019-05-03T09:43:59.151Z,11.47
2019-05-03T09:46:29.319Z,11.63
2019-05-03T09:49:12.612Z,12.27
2019-05-03T09:51:30.992Z,13.13
2019-05-03T09:54:07.545Z,12.87
2019-05-03T09:56:58.411Z,13.13
2019-05-03T09:59:28.211Z,12.07
2019-05-03T10:01:59.185Z,12.97
2019-05-03T10:04:29.588Z,11.73
2019-05-03T10:06:59.788Z,10.87
2019-05-03T10:09:30.045Z,11.87
2019-05-03T10:12:00.972Z,13.83
2019-05-03T10:14:31.227Z,12.10
2019-05-03T10:17:25.207Z,12.17
2019-05-03T10:19:55.415Z,12.47
2019-05-03T10:22:27.996Z,13.63
2019-05-03T10:24:58.147Z,11.20
2019-05-03T10:27:30.235Z,13.20
2019-05-03T10:30:12.205Z,11.80
2019-05-03T10:32:41.013Z,11.20
2019-05-03T10:35:14.989Z,10.57
2019-05-03T10:37:45.421Z,11.97
2019-05-03T10:40:25.138Z,11.53
2019-05-03T10:42:55.584Z,12.10
2019-05-03T10:45:28.103Z,11.90
2019-05-03T10:47:58.939Z,10.53
2019-05-03T10:50:35.002Z,10.57
2019-05-03T10:53:10.620Z,9.90
2019-05-03T10:55:45.180Z,9.23
2019-05-03T10:58:19.330Z,10.40
2019-05-03T11:00:53.369Z,8.37
2019-05-03T11:03:23.816Z,11.10
2019-05-03T11:05:54.936Z,10.10
2019-05-03T11:08:25.661Z,8.47
2019-05-03T11:10:56.393Z,8.40
2019-05-03T11:13:28.607Z,8.80
2019-05-03T11:15:59.448Z,8.97
2019-05-03T11:18:30.071Z,8.47
2019-05-03T11:21:02.503Z,8.60
2019-05-03T11:23:37.706Z,11.50
2019-05-03T11:26:07.899Z,8.40
2019-05-03T11:28:37.551Z,9.03
2019-05-03T11:31:35.972Z,9.83
2019-05-03T11:34:08.751Z,8.77
2019-05-03T11:36:52.061Z,10.93
2019-05-03T11:39:21.842Z,9.33
2019-05-03T11:41:55.059Z,9.13
2019-05-03T11:44:40.327Z,8.63
2019-05-03T11:47:10.548Z,8.37
2019-05-03T11:49:40.489Z,8.27
2019-05-03T11:52:10.619Z,8.57
2019-05-03T11:54:40.675Z,9.53
2019-05-03T11:57:17.290Z,9.23
2019-05-03T11:59:47.045Z,8.17
2019-05-03T12:02:38.979Z,13.67
2019-05-03T12:05:15.128Z,9.30
2019-05-03T12:07:45.483Z,9.83
2019-05-03T12:10:30.953Z,7.83
2019-05-03T12:12:49.291Z,8.40
2019-05-03T12:15:19.310Z,9.33
2019-05-03T12:17:55.297Z,7.73
2019-05-03T12:20:24.686Z,7.87
2019-05-03T12:22:54.958Z,7.80
2019-05-03T12:25:26.271Z,7.87
2019-05-03T12:27:56.902Z,7.00
2019-05-03T12:30:27.804Z,8.43
2019-05-03T12:32:57.650Z,8.10
2019-05-03T12:35:28.137Z,9.17
2019-05-03T12:37:57.984Z,7.93
2019-05-03T12:40:27.733Z,7.80
2019-05-03T12:42:58.178Z,7.10
2019-05-03T12:45:28.264Z,9.00
2019-05-03T12:47:58.842Z,7.03
2019-05-03T12:50:28.825Z,6.90
2019-05-03T12:52:58.590Z,7.63
2019-05-03T12:55:28.635Z,7.43
2019-05-03T12:57:58.370Z,6.47
2019-05-03T13:01:04.553Z,6.30
2019-05-03T13:03:40.202Z,6.50
2019-05-03T13:06:09.938Z,8.40
2019-05-03T13:08:42.707Z,7.03
2019-05-03T13:11:12.514Z,6.67
2019-05-03T13:13:42.305Z,7.33
2019-05-03T13:16:15.655Z,6.87
2019-05-03T13:18:45.915Z,6.77
2019-05-03T13:21:16.010Z,6.87
2019-05-03T13:23:46.550Z,6.50
2019-05-03T13:26:17.962Z,9.57
2019-05-03T13:28:47.946Z,6.77
2019-05-03T13:31:18.771Z,8.30
2019-05-03T13:33:48.733Z,6.23
2019-05-03T13:36:18.999Z,7.67
2019-05-03T13:38:48.762Z,6.83
2019-05-03T13:41:18.798Z,7.47
2019-05-03T13:43:49.242Z,8.00
2019-05-03T13:46:19.107Z,7.57
2019-05-03T13:48:49.308Z,7.07
2019-05-03T13:51:19.150Z,6.57
2019-05-03T13:53:48.914Z,6.53
2019-05-03T13:56:18.946Z,6.17
2019-05-03T13:58:48.861Z,5.60
2019-05-03T14:01:19.714Z,6.00
2019-05-03T14:03:49.417Z,9.13
2019-05-03T14:06:19.529Z,6.57
2019-05-03T14:08:49.225Z,7.47
2019-05-03T14:11:19.467Z,5.83
2019-05-03T14:13:49.246Z,5.10
2019-05-03T14:16:19.645Z,6.77
2019-05-03T14:18:51.187Z,5.50
2019-05-03T14:21:26.447Z,5.37
2019-05-03T14:24:12.262Z,6.10
2019-05-03T14:26:44.580Z,7.77
2019-05-03T14:29:15.066Z,4.60
2019-05-03T14:31:45.555Z,5.90
2019-05-03T14:34:17.489Z,5.70
2019-05-03T14:36:47.222Z,6.40
2019-05-03T14:39:16.983Z,5.87
2019-05-03T14:41:47.035Z,5.63
2019-05-03T14:44:18.064Z,5.60
2019-05-03T14:46:48.355Z,7.30
2019-05-03T14:49:18.193Z,5.20
2019-05-03T14:51:48.085Z,6.90
2019-05-03T14:54:18.461Z,6.23
2019-05-03T14:57:10.818Z,8.00
2019-05-03T14:59:59.823Z,5.60
2019-05-03T15:02:47.489Z,5.13
2019-05-03T15:05:14.941Z,5.27
2019-05-03T15:07:45.907Z,4.30
2019-05-03T15:10:16.113Z,6.27
2019-05-03T15:12:45.924Z,6.43
2019-05-03T15:15:15.867Z,5.83
2019-05-03T15:17:45.928Z,5.50
2019-05-03T15:20:16.479Z,5.20
2019-05-03T15:22:46.263Z,5.30
2019-05-03T15:25:16.125Z,5.20
2019-05-03T15:27:48.523Z,6.57
2019-05-03T15:30:17.450Z,5.70
2019-05-03T15:32:57.073Z,4.83
2019-05-03T15:35:18.734Z,6.53
2019-05-03T15:37:49.250Z,5.97
2019-05-03T15:40:19.073Z,5.33
2019-05-03T15:42:54.728Z,8.73
2019-05-03T15:45:51.778Z,5.87
2019-05-03T15:48:27.349Z,6.70
2019-05-03T15:50:57.347Z,5.37
2019-05-03T15:53:27.137Z,6.03
2019-05-03T15:55:57.151Z,4.70
2019-05-03T15:58:27.199Z,4.87
2019-05-03T16:00:56.907Z,6.20
2019-05-03T16:03:26.842Z,5.57
2019-05-03T16:05:56.616Z,5.70
2019-05-03T16:08:26.326Z,7.00
2019-05-03T16:10:56.087Z,23.60
2019-05-03T16:13:26.074Z,17.43
2019-05-03T16:15:56.111Z,22.23
2019-05-03T16:18:25.932Z,5.97
2019-05-03T16:20:55.745Z,6.03
2019-05-03T16:23:25.885Z,6.30
2019-05-03T16:25:56.003Z,6.70
2019-05-03T16:28:39.887Z,6.97
2019-05-03T16:31:12.278Z,5.97
2019-05-03T16:33:41.969Z,6.63
2019-05-03T16:36:11.796Z,6.83
2019-05-03T16:38:41.836Z,5.80
2019-05-03T16:41:15.405Z,6.60
2019-05-03T16:43:45.565Z,8.63
2019-05-03T16:46:15.713Z,7.60
2019-05-03T16:48:45.886Z,6.47
2019-05-03T16:51:17.212Z,6.80
2019-05-03T16:53:47.189Z,7.43
2019-05-03T16:56:17.258Z,5.70
2019-05-03T16:58:47.298Z,6.30
2019-05-03T17:01:18.133Z,11.40
2019-05-03T17:03:55.936Z,5.50
2019-05-03T17:06:45.228Z,6.57
2019-05-03T17:09:24.839Z,6.40
2019-05-03T17:12:16.593Z,6.33
2019-05-03T17:14:46.391Z,6.97
2019-05-03T17:17:16.122Z,6.37
2019-05-03T17:19:45.796Z,7.57
2019-05-03T17:22:17.322Z,6.70
2019-05-03T17:24:47.350Z,6.23
2019-05-03T17:27:17.080Z,6.17
2019-05-03T17:29:46.837Z,7.47
2019-05-03T17:32:16.722Z,7.20
2019-05-03T17:34:46.583Z,5.13
2019-05-03T17:37:16.402Z,6.27
2019-05-03T17:39:55.146Z,5.60
2019-05-03T17:42:42.686Z,8.07
2019-05-03T17:45:14.708Z,5.77
2019-05-03T17:47:45.412Z,5.57
2019-05-03T17:50:15.358Z,5.60
2019-05-03T17:53:02.608Z,7.70
2019-05-03T17:55:51.368Z,6.13
2019-05-03T17:58:41.487Z,10.53
2019-05-03T18:01:20.257Z,7.13
2019-05-03T18:04:03.939Z,6.70
2019-05-03T18:06:26.522Z,6.53
2019-05-03T18:09:21.104Z,7.93
2019-05-03T18:11:56.340Z,4.80
2019-05-03T18:14:26.362Z,6.00
2019-05-03T18:16:56.993Z,4.40
2019-05-03T18:19:27.016Z,3.57
2019-05-03T18:21:56.976Z,5.77
2019-05-03T18:24:26.927Z,7.17
2019-05-03T18:26:57.220Z,5.10
2019-05-03T18:29:26.988Z,7.50
2019-05-03T18:31:57.058Z,8.63
2019-05-03T18:34:27.008Z,5.53
2019-05-03T18:36:57.001Z,5.50
2019-05-03T18:39:27.045Z,76.43
2019-05-03T18:41:57.519Z,81.20
2019-05-03T18:44:36.322Z,42.57
2019-05-03T18:47:08.718Z,21.77
2019-05-03T18:49:38.562Z,8.10
2019-05-03T18:52:08.347Z,4.43
2019-05-03T18:54:38.080Z,4.03
2019-05-03T18:57:07.938Z,5.30
2019-05-03T18:59:37.889Z,5.37
2019-05-03T19:02:09.485Z,5.33
2019-05-03T19:04:46.728Z,3.60
2019-05-03T19:07:36.018Z,3.70
2019-05-03T19:10:12.767Z,4.03
2019-05-03T19:12:47.993Z,4.20
2019-05-03T19:15:17.868Z,85.57
2019-05-03T19:17:54.740Z,35.40
2019-05-03T19:20:24.774Z,11.37
2019-05-03T19:22:54.622Z,11.07
2019-05-03T19:25:25.527Z,5.67
2019-05-03T19:27:55.990Z,6.30
2019-05-03T19:30:26.512Z,7.60
2019-05-03T19:32:56.292Z,7.70
2019-05-03T19:35:27.707Z,6.87
2019-05-03T19:37:57.627Z,8.53
2019-05-03T19:40:27.366Z,19.03
2019-05-03T19:42:57.629Z,16.97
2019-05-03T19:45:27.607Z,11.10
2019-05-03T19:47:57.939Z,6.20
2019-05-03T19:50:28.829Z,6.07
2019-05-03T19:53:05.141Z,6.80
2019-05-03T19:55:35.900Z,6.83
2019-05-03T19:58:06.405Z,6.90
2019-05-03T20:00:44.326Z,12.00
2019-05-03T20:03:17.913Z,9.73
2019-05-03T20:06:06.310Z,6.30
2019-05-03T20:08:41.416Z,9.27
2019-05-03T20:11:15.987Z,6.53
2019-05-03T20:13:46.947Z,5.27
2019-05-03T20:16:17.494Z,6.87
2019-05-03T20:18:48.779Z,6.17
2019-05-03T20:21:19.340Z,7.37
2019-05-03T20:23:49.932Z,18.47
2019-05-03T20:26:20.817Z,6.83
2019-05-03T20:28:51.396Z,6.07
2019-05-03T20:31:22.282Z,6.93
2019-05-03T20:33:54.833Z,6.20
2019-05-03T20:36:24.758Z,6.07
2019-05-03T20:38:55.041Z,10.80
2019-05-03T20:41:27.389Z,6.97
2019-05-03T20:44:09.823Z,8.50
2019-05-03T20:47:01.902Z,6.83
2019-05-03T20:49:31.668Z,8.00
2019-05-03T20:52:01.947Z,6.50
2019-05-03T20:54:31.741Z,9.77
2019-05-03T20:57:01.474Z,5.97
2019-05-03T20:59:42.193Z,7.03
2019-05-03T21:02:03.589Z,6.63
2019-05-03T21:04:35.217Z,6.63
2019-05-03T21:07:05.107Z,7.03
2019-05-03T21:09:34.914Z,4.77
2019-05-03T21:12:04.782Z,6.57
2019-05-03T21:14:35.189Z,7.73
2019-05-03T21:17:15.759Z,8.13
2019-05-03T21:19:55.169Z,5.30
2019-05-03T21:22:32.852Z,6.50
2019-05-03T21:25:21.971Z,8.20
2019-05-03T21:27:51.841Z,7.90
2019-05-03T21:30:21.878Z,8.30
2019-05-03T21:32:51.651Z,6.10
2019-05-03T21:35:26.294Z,9.33
2019-05-03T21:37:56.126Z,8.67
2019-05-03T21:40:26.265Z,6.57
2019-05-03T21:42:56.363Z,6.77
2019-05-03T21:45:32.334Z,5.83
2019-05-03T21:48:08.179Z,8.37
2019-05-03T21:50:38.337Z,7.53
2019-05-03T21:53:08.030Z,6.53
2019-05-03T21:55:37.923Z,6.70
2019-05-03T21:58:08.173Z,6.20
2019-05-03T22:00:54.541Z,5.40
2019-05-03T22:03:27.621Z,6.40
2019-05-03T22:05:58.157Z,7.17
2019-05-03T22:08:29.152Z,8.00
2019-05-03T22:10:59.222Z,7.13
2019-05-03T22:13:34.909Z,6.17
2019-05-03T22:16:17.865Z,5.73
2019-05-03T22:18:47.754Z,7.80
2019-05-03T22:21:28.983Z,7.90
2019-05-03T22:24:27.518Z,8.77
2019-05-03T22:26:59.927Z,6.50
2019-05-03T22:29:35.630Z,5.93
2019-05-03T22:32:05.643Z,6.57
2019-05-03T22:34:35.798Z,6.47
2019-05-03T22:37:06.092Z,6.10
2019-05-03T22:39:37.507Z,6.03
2019-05-03T22:42:07.673Z,5.43
2019-05-03T22:44:37.730Z,5.90
2019-05-03T22:47:07.795Z,5.80
2019-05-03T22:49:37.524Z,7.83
2019-05-03T22:52:09.394Z,22.57
2019-05-03T22:54:39.649Z,10.97
2019-05-03T22:57:15.518Z,7.20
2019-05-03T22:59:45.434Z,5.70
2019-05-03T23:02:17.225Z,5.93
2019-05-03T23:04:47.140Z,5.40
2019-05-03T23:07:25.174Z,7.50
2019-05-03T23:09:58.879Z,8.83
2019-05-03T23:12:28.832Z,8.23
2019-05-03T23:14:58.945Z,6.50
2019-05-03T23:17:29.651Z,6.53
2019-05-03T23:20:05.616Z,7.00
2019-05-03T23:22:35.380Z,8.67
2019-05-03T23:25:05.714Z,7.00
2019-05-03T23:27:35.591Z,8.73
2019-05-03T23:30:07.215Z,6.60
2019-05-03T23:32:37.487Z,7.33
2019-05-03T23:35:07.650Z,6.70
2019-05-03T23:37:38.018Z,7.10
2019-05-03T23:40:08.330Z,5.87
2019-05-03T23:42:38.475Z,7.70
2019-05-03T23:45:18.187Z,8.10
2019-05-03T23:47:50.028Z,6.30
2019-05-03T23:50:25.800Z,8.87
2019-05-03T23:53:00.026Z,6.97
2019-05-03T23:55:34.892Z,6.87
2019-05-03T23:58:04.933Z,7.40
